sensor_id;sensor_type;location;lat;lon;timestamp;pressure;altitude;pressure_sealevel;temperature;humidity
47873;BME280;73966;47.438;18.912;2024-01-27T00:01:59;100323.16;;;7.63;69.19
47873;BME280;73966;47.438;18.912;2024-01-27T00:04:29;100326.50;;;7.49;69.57
47873;BME280;73966;47.438;18.912;2024-01-27T00:06:58;100317.34;;;7.56;69.37
47873;BME280;73966;47.438;18.912;2024-01-27T00:09:27;100314.38;;;7.62;69.21
47873;BME280;73966;47.438;18.912;2024-01-27T00:11:58;100324.19;;;7.60;68.96
47873;BME280;73966;47.438;18.912;2024-01-27T00:14:27;100326.41;;;7.51;69.32
47873;BME280;73966;47.438;18.912;2024-01-27T00:16:56;100320.28;;;7.33;68.92
47873;BME280;73966;47.438;18.912;2024-01-27T00:19:26;100335.00;;;7.37;68.47
47873;BME280;73966;47.438;18.912;2024-01-27T00:21:55;100319.09;;;7.38;67.55
47873;BME280;73966;47.438;18.912;2024-01-27T00:24:25;100338.75;;;7.50;66.71
47873;BME280;73966;47.438;18.912;2024-01-27T00:26:54;100332.91;;;7.44;65.60
47873;BME280;73966;47.438;18.912;2024-01-27T00:29:28;100342.69;;;7.42;65.37
47873;BME280;73966;47.438;18.912;2024-01-27T00:31:57;100336.09;;;7.33;65.07
47873;BME280;73966;47.438;18.912;2024-01-27T00:34:26;100353.16;;;7.43;64.34
47873;BME280;73966;47.438;18.912;2024-01-27T00:36:56;100350.19;;;7.32;64.03
47873;BME280;73966;47.438;18.912;2024-01-27T00:39:25;100344.75;;;7.35;63.05
47873;BME280;73966;47.438;18.912;2024-01-27T00:41:57;100361.28;;;7.38;63.13
47873;BME280;73966;47.438;18.912;2024-01-27T00:44:29;100356.09;;;7.37;62.92
47873;BME280;73966;47.438;18.912;2024-01-27T00:46:58;100369.06;;;7.42;62.84
47873;BME280;73966;47.438;18.912;2024-01-27T00:49:28;100381.72;;;7.52;63.03
47873;BME280;73966;47.438;18.912;2024-01-27T00:51:57;100389.06;;;7.46;62.97
47873;BME280;73966;47.438;18.912;2024-01-27T00:54:35;100405.59;;;7.49;63.13
47873;BME280;73966;47.438;18.912;2024-01-27T00:57:05;100425.78;;;7.31;63.65
47873;BME280;73966;47.438;18.912;2024-01-27T00:59:37;100444.66;;;7.41;63.66
47873;BME280;73966;47.438;18.912;2024-01-27T01:02:07;100449.81;;;7.25;63.46
47873;BME280;73966;47.438;18.912;2024-01-27T01:04:36;100450.28;;;7.33;63.33
47873;BME280;73966;47.438;18.912;2024-01-27T01:07:06;100460.56;;;7.21;63.77
47873;BME280;73966;47.438;18.912;2024-01-27T01:09:36;100463.53;;;7.32;63.54
47873;BME280;73966;47.438;18.912;2024-01-27T01:12:07;100469.09;;;7.26;63.99
47873;BME280;73966;47.438;18.912;2024-01-27T01:14:39;100463.13;;;7.41;63.63
47873;BME280;73966;47.438;18.912;2024-01-27T01:17:12;100467.31;;;7.26;63.88
47873;BME280;73966;47.438;18.912;2024-01-27T01:19:41;100474.44;;;7.43;63.95
47873;BME280;73966;47.438;18.912;2024-01-27T01:22:13;100481.13;;;7.31;63.78
47873;BME280;73966;47.438;18.912;2024-01-27T01:24:43;100486.84;;;7.41;63.82
47873;BME280;73966;47.438;18.912;2024-01-27T01:27:14;100484.56;;;7.33;63.79
47873;BME280;73966;47.438;18.912;2024-01-27T01:29:48;100489.41;;;7.43;63.58
47873;BME280;73966;47.438;18.912;2024-01-27T01:32:17;100485.28;;;7.37;63.98
47873;BME280;73966;47.438;18.912;2024-01-27T01:34:48;100473.84;;;7.55;63.24
47873;BME280;73966;47.438;18.912;2024-01-27T01:37:17;100478.56;;;7.30;63.54
47873;BME280;73966;47.438;18.912;2024-01-27T01:39:47;100492.25;;;7.38;63.55
47873;BME280;73966;47.438;18.912;2024-01-27T01:42:16;100492.38;;;7.35;62.91
47873;BME280;73966;47.438;18.912;2024-01-27T01:44:45;100499.28;;;7.19;63.53
47873;BME280;73966;47.438;18.912;2024-01-27T01:47:16;100508.41;;;7.30;62.39
47873;BME280;73966;47.438;18.912;2024-01-27T01:49:50;100512.91;;;7.28;62.05
47873;BME280;73966;47.438;18.912;2024-01-27T01:52:21;100514.87;;;7.23;62.08
47873;BME280;73966;47.438;18.912;2024-01-27T01:54:50;100518.72;;;7.16;61.87
47873;BME280;73966;47.438;18.912;2024-01-27T01:57:20;100530.28;;;7.13;61.62
47873;BME280;73966;47.438;18.912;2024-01-27T01:59:50;100537.38;;;7.11;61.16
47873;BME280;73966;47.438;18.912;2024-01-27T02:02:24;100544.34;;;7.12;60.69
47873;BME280;73966;47.438;18.912;2024-01-27T02:04:54;100549.84;;;7.08;60.87
47873;BME280;73966;47.438;18.912;2024-01-27T02:07:23;100561.19;;;7.10;60.36
47873;BME280;73966;47.438;18.912;2024-01-27T02:09:52;100551.75;;;7.04;59.21
47873;BME280;73966;47.438;18.912;2024-01-27T02:12:22;100555.22;;;7.25;59.38
47873;BME280;73966;47.438;18.912;2024-01-27T02:14:52;100553.31;;;7.29;58.88
47873;BME280;73966;47.438;18.912;2024-01-27T02:17:29;100548.03;;;6.89;59.40
47873;BME280;73966;47.438;18.912;2024-01-27T02:19:59;100543.16;;;7.20;58.59
47873;BME280;73966;47.438;18.912;2024-01-27T02:22:30;100541.75;;;6.92;58.67
47873;BME280;73966;47.438;18.912;2024-01-27T02:25:05;100533.25;;;7.06;58.46
47873;BME280;73966;47.438;18.912;2024-01-27T02:27:34;100556.50;;;6.96;58.67
47873;BME280;73966;47.438;18.912;2024-01-27T02:30:04;100529.00;;;6.83;58.05
47873;BME280;73966;47.438;18.912;2024-01-27T02:32:39;100521.34;;;6.77;58.69
47873;BME280;73966;47.438;18.912;2024-01-27T02:35:08;100528.34;;;6.78;58.73
47873;BME280;73966;47.438;18.912;2024-01-27T02:37:43;100503.66;;;6.60;58.83
47873;BME280;73966;47.438;18.912;2024-01-27T02:40:14;100527.16;;;6.64;58.75
47873;BME280;73966;47.438;18.912;2024-01-27T02:42:43;100516.41;;;6.69;58.65
47873;BME280;73966;47.438;18.912;2024-01-27T02:45:16;100516.16;;;6.55;58.95
47873;BME280;73966;47.438;18.912;2024-01-27T02:47:45;100521.75;;;6.47;58.79
47873;BME280;73966;47.438;18.912;2024-01-27T02:50:15;100550.00;;;6.44;58.86
47873;BME280;73966;47.438;18.912;2024-01-27T02:52:43;100552.94;;;6.36;59.04
47873;BME280;73966;47.438;18.912;2024-01-27T02:55:18;100560.62;;;6.40;59.15
47873;BME280;73966;47.438;18.912;2024-01-27T02:57:54;100574.53;;;6.44;59.17
47873;BME280;73966;47.438;18.912;2024-01-27T03:00:24;100578.88;;;6.45;59.01
47873;BME280;73966;47.438;18.912;2024-01-27T03:02:53;100590.75;;;6.55;58.97
47873;BME280;73966;47.438;18.912;2024-01-27T03:05:25;100589.56;;;6.62;58.72
47873;BME280;73966;47.438;18.912;2024-01-27T03:07:54;100594.72;;;6.65;58.95
47873;BME280;73966;47.438;18.912;2024-01-27T03:10:26;100593.44;;;6.54;59.26
47873;BME280;73966;47.438;18.912;2024-01-27T03:12:55;100586.41;;;6.54;59.47
47873;BME280;73966;47.438;18.912;2024-01-27T03:15:27;100599.34;;;6.38;60.07
47873;BME280;73966;47.438;18.912;2024-01-27T03:17:56;100610.59;;;6.42;60.15
47873;BME280;73966;47.438;18.912;2024-01-27T03:20:26;100622.84;;;6.21;60.51
47873;BME280;73966;47.438;18.912;2024-01-27T03:22:56;100644.41;;;6.31;60.05
47873;BME280;73966;47.438;18.912;2024-01-27T03:25:26;100648.19;;;6.24;60.36
47873;BME280;73966;47.438;18.912;2024-01-27T03:27:55;100651.47;;;6.29;60.11
47873;BME280;73966;47.438;18.912;2024-01-27T03:30:24;100654.13;;;6.29;60.13
47873;BME280;73966;47.438;18.912;2024-01-27T03:32:53;100664.63;;;6.29;60.11
47873;BME280;73966;47.438;18.912;2024-01-27T03:35:23;100659.56;;;6.24;60.21
47873;BME280;73966;47.438;18.912;2024-01-27T03:37:52;100668.88;;;6.33;60.07
47873;BME280;73966;47.438;18.912;2024-01-27T03:40:21;100673.53;;;6.26;60.15
47873;BME280;73966;47.438;18.912;2024-01-27T03:42:52;100677.06;;;6.25;60.48
47873;BME280;73966;47.438;18.912;2024-01-27T03:45:21;100692.06;;;6.45;60.00
47873;BME280;73966;47.438;18.912;2024-01-27T03:47:51;100689.81;;;6.58;59.59
47873;BME280;73966;47.438;18.912;2024-01-27T03:50:21;100691.69;;;6.32;60.19
47873;BME280;73966;47.438;18.912;2024-01-27T03:52:50;100704.81;;;6.34;60.39
47873;BME280;73966;47.438;18.912;2024-01-27T03:55:30;100702.13;;;6.12;61.19
47873;BME280;73966;47.438;18.912;2024-01-27T03:58:01;100702.91;;;5.92;61.91
47873;BME280;73966;47.438;18.912;2024-01-27T04:00:31;100699.66;;;5.84;62.24
47873;BME280;73966;47.438;18.912;2024-01-27T04:03:01;100704.59;;;5.93;62.07
47873;BME280;73966;47.438;18.912;2024-01-27T04:05:31;100714.84;;;6.01;62.03
47873;BME280;73966;47.438;18.912;2024-01-27T04:08:00;100718.06;;;5.84;62.71
47873;BME280;73966;47.438;18.912;2024-01-27T04:10:30;100725.97;;;5.84;63.01
47873;BME280;73966;47.438;18.912;2024-01-27T04:13:02;100732.47;;;5.99;62.61
47873;BME280;73966;47.438;18.912;2024-01-27T04:15:33;100731.38;;;6.04;62.50
47873;BME280;73966;47.438;18.912;2024-01-27T04:18:06;100741.22;;;5.99;62.59
47873;BME280;73966;47.438;18.912;2024-01-27T04:20:36;100738.59;;;5.99;62.53
47873;BME280;73966;47.438;18.912;2024-01-27T04:23:06;100734.28;;;5.72;62.95
47873;BME280;73966;47.438;18.912;2024-01-27T04:25:35;100728.28;;;5.93;62.44
47873;BME280;73966;47.438;18.912;2024-01-27T04:28:05;100732.28;;;5.55;63.08
47873;BME280;73966;47.438;18.912;2024-01-27T04:30:37;100739.28;;;5.79;61.95
47873;BME280;73966;47.438;18.912;2024-01-27T04:33:06;100749.53;;;5.62;61.61
47873;BME280;73966;47.438;18.912;2024-01-27T04:35:36;100760.75;;;5.67;61.32
47873;BME280;73966;47.438;18.912;2024-01-27T04:38:08;100766.47;;;5.53;61.00
47873;BME280;73966;47.438;18.912;2024-01-27T04:40:37;100770.41;;;5.66;60.65
47873;BME280;73966;47.438;18.912;2024-01-27T04:43:08;100773.56;;;5.76;60.50
47873;BME280;73966;47.438;18.912;2024-01-27T04:45:37;100774.31;;;5.80;60.18
47873;BME280;73966;47.438;18.912;2024-01-27T04:48:12;100774.59;;;5.72;60.39
47873;BME280;73966;47.438;18.912;2024-01-27T04:50:41;100771.28;;;5.67;60.33
47873;BME280;73966;47.438;18.912;2024-01-27T04:53:11;100778.22;;;5.95;59.83
47873;BME280;73966;47.438;18.912;2024-01-27T04:55:43;100776.31;;;5.73;60.34
47873;BME280;73966;47.438;18.912;2024-01-27T04:58:17;100782.84;;;5.61;60.42
47873;BME280;73966;47.438;18.912;2024-01-27T05:00:46;100788.16;;;5.60;60.22
47873;BME280;73966;47.438;18.912;2024-01-27T05:03:15;100799.03;;;5.49;60.26
47873;BME280;73966;47.438;18.912;2024-01-27T05:05:45;100806.66;;;5.57;60.39
47873;BME280;73966;47.438;18.912;2024-01-27T05:08:14;100799.44;;;5.63;59.90
47873;BME280;73966;47.438;18.912;2024-01-27T05:10:44;100804.13;;;5.54;60.04
47873;BME280;73966;47.438;18.912;2024-01-27T05:13:13;100821.22;;;5.67;59.42
47873;BME280;73966;47.438;18.912;2024-01-27T05:15:45;100806.41;;;5.64;59.28
47873;BME280;73966;47.438;18.912;2024-01-27T05:18:14;100807.75;;;5.51;59.50
47873;BME280;73966;47.438;18.912;2024-01-27T05:20:43;100812.94;;;5.53;58.73
47873;BME280;73966;47.438;18.912;2024-01-27T05:23:12;100810.56;;;5.45;58.27
47873;BME280;73966;47.438;18.912;2024-01-27T05:25:47;100813.44;;;5.64;57.93
47873;BME280;73966;47.438;18.912;2024-01-27T05:28:20;100805.81;;;5.81;56.59
47873;BME280;73966;47.438;18.912;2024-01-27T05:30:51;100817.69;;;5.68;57.24
47873;BME280;73966;47.438;18.912;2024-01-27T05:33:23;100815.72;;;5.48;57.62
47873;BME280;73966;47.438;18.912;2024-01-27T05:35:52;100814.72;;;5.52;57.24
47873;BME280;73966;47.438;18.912;2024-01-27T05:38:22;100829.31;;;5.34;57.25
47873;BME280;73966;47.438;18.912;2024-01-27T05:40:51;100836.19;;;5.38;57.13
47873;BME280;73966;47.438;18.912;2024-01-27T05:43:21;100833.94;;;5.28;57.13
47873;BME280;73966;47.438;18.912;2024-01-27T05:45:52;100850.97;;;5.14;56.12
47873;BME280;73966;47.438;18.912;2024-01-27T05:48:25;100855.31;;;5.43;55.51
47873;BME280;73966;47.438;18.912;2024-01-27T05:50:55;100847.94;;;5.28;55.84
47873;BME280;73966;47.438;18.912;2024-01-27T05:53:28;100872.13;;;5.38;55.93
47873;BME280;73966;47.438;18.912;2024-01-27T05:55:57;100884.72;;;5.28;55.94
47873;BME280;73966;47.438;18.912;2024-01-27T05:58:28;100897.47;;;5.40;55.98
47873;BME280;73966;47.438;18.912;2024-01-27T06:00:59;100911.72;;;5.60;55.48
47873;BME280;73966;47.438;18.912;2024-01-27T06:03:32;100914.31;;;5.35;55.74
47873;BME280;73966;47.438;18.912;2024-01-27T06:06:02;100924.13;;;5.56;55.66
47873;BME280;73966;47.438;18.912;2024-01-27T06:08:31;100920.38;;;5.63;55.07
47873;BME280;73966;47.438;18.912;2024-01-27T06:11:00;100917.84;;;5.60;55.54
47873;BME280;73966;47.438;18.912;2024-01-27T06:13:35;100924.41;;;5.74;55.61
47873;BME280;73966;47.438;18.912;2024-01-27T06:16:08;100915.22;;;5.87;55.48
47873;BME280;73966;47.438;18.912;2024-01-27T06:18:41;100926.16;;;5.75;55.89
47873;BME280;73966;47.438;18.912;2024-01-27T06:21:10;100927.81;;;5.51;56.82
47873;BME280;73966;47.438;18.912;2024-01-27T06:23:39;100924.28;;;5.50;56.96
47873;BME280;73966;47.438;18.912;2024-01-27T06:26:09;100926.34;;;5.68;57.03
47873;BME280;73966;47.438;18.912;2024-01-27T06:28:39;100922.09;;;5.64;57.43
47873;BME280;73966;47.438;18.912;2024-01-27T06:31:09;100927.84;;;5.49;58.17
47873;BME280;73966;47.438;18.912;2024-01-27T06:33:39;100928.66;;;5.51;58.34
47873;BME280;73966;47.438;18.912;2024-01-27T06:36:08;100931.81;;;5.62;58.11
47873;BME280;73966;47.438;18.912;2024-01-27T06:38:39;100936.19;;;5.35;58.57
47873;BME280;73966;47.438;18.912;2024-01-27T06:41:08;100934.44;;;5.62;58.15
47873;BME280;73966;47.438;18.912;2024-01-27T06:43:38;100948.22;;;5.69;57.44
47873;BME280;73966;47.438;18.912;2024-01-27T06:46:09;100959.72;;;5.38;58.56
47873;BME280;73966;47.438;18.912;2024-01-27T06:48:40;100951.09;;;5.35;58.68
47873;BME280;73966;47.438;18.912;2024-01-27T06:51:09;100956.84;;;5.46;58.46
47873;BME280;73966;47.438;18.912;2024-01-27T06:53:39;100945.44;;;5.47;58.21
47873;BME280;73966;47.438;18.912;2024-01-27T06:56:08;100942.69;;;5.50;58.39
47873;BME280;73966;47.438;18.912;2024-01-27T06:58:37;100940.38;;;5.41;58.58
47873;BME280;73966;47.438;18.912;2024-01-27T07:01:07;100943.62;;;5.49;58.41
47873;BME280;73966;47.438;18.912;2024-01-27T07:03:38;100943.69;;;6.02;57.27
47873;BME280;73966;47.438;18.912;2024-01-27T07:06:12;100952.28;;;6.32;56.35
47873;BME280;73966;47.438;18.912;2024-01-27T07:08:41;100936.53;;;6.79;54.76
47873;BME280;73966;47.438;18.912;2024-01-27T07:11:10;100932.53;;;6.46;55.48
47873;BME280;73966;47.438;18.912;2024-01-27T07:13:41;100944.75;;;6.95;54.36
47873;BME280;73966;47.438;18.912;2024-01-27T07:16:10;100942.84;;;6.75;54.69
47873;BME280;73966;47.438;18.912;2024-01-27T07:18:44;100961.94;;;6.57;55.26
47873;BME280;73966;47.438;18.912;2024-01-27T07:21:15;100960.50;;;6.48;55.58
47873;BME280;73966;47.438;18.912;2024-01-27T07:23:51;100969.97;;;6.54;55.52
47873;BME280;73966;47.438;18.912;2024-01-27T07:26:34;100958.06;;;6.67;55.58
47873;BME280;73966;47.438;18.912;2024-01-27T07:29:04;100967.41;;;6.99;54.78
47873;BME280;73966;47.438;18.912;2024-01-27T07:31:34;100967.66;;;6.93;54.43
47873;BME280;73966;47.438;18.912;2024-01-27T07:34:05;100981.59;;;6.72;54.92
47873;BME280;73966;47.438;18.912;2024-01-27T07:36:35;100978.63;;;7.04;54.25
47873;BME280;73966;47.438;18.912;2024-01-27T07:39:05;100975.13;;;7.05;54.20
47873;BME280;73966;47.438;18.912;2024-01-27T07:41:35;100978.91;;;7.44;53.31
47873;BME280;73966;47.438;18.912;2024-01-27T07:44:08;100976.78;;;7.53;52.96
47873;BME280;73966;47.438;18.912;2024-01-27T07:46:38;100967.50;;;7.65;52.80
47873;BME280;73966;47.438;18.912;2024-01-27T07:49:09;100971.91;;;7.43;53.10
47873;BME280;73966;47.438;18.912;2024-01-27T07:51:40;100970.25;;;7.40;52.85
47873;BME280;73966;47.438;18.912;2024-01-27T07:54:11;100985.94;;;7.43;52.78
47873;BME280;73966;47.438;18.912;2024-01-27T07:56:41;100977.72;;;7.29;53.39
47873;BME280;73966;47.438;18.912;2024-01-27T07:59:11;100978.34;;;7.79;52.61
47873;BME280;73966;47.438;18.912;2024-01-27T08:01:43;100987.47;;;8.35;51.15
47873;BME280;73966;47.438;18.912;2024-01-27T08:04:14;100987.31;;;8.60;50.35
47873;BME280;73966;47.438;18.912;2024-01-27T08:06:49;101001.22;;;8.84;49.54
47873;BME280;73966;47.438;18.912;2024-01-27T08:09:19;101001.28;;;9.22;48.62
47873;BME280;73966;47.438;18.912;2024-01-27T08:11:49;100998.19;;;9.69;47.61
47873;BME280;73966;47.438;18.912;2024-01-27T08:14:22;101022.22;;;9.83;46.93
47873;BME280;73966;47.438;18.912;2024-01-27T08:16:51;101028.09;;;10.26;49.75
47873;BME280;73966;47.438;18.912;2024-01-27T08:19:26;101021.81;;;11.45;45.42
47873;BME280;73966;47.438;18.912;2024-01-27T08:21:56;101012.06;;;11.93;43.23
47873;BME280;73966;47.438;18.912;2024-01-27T08:24:25;101020.84;;;11.62;42.29
47873;BME280;73966;47.438;18.912;2024-01-27T08:26:55;101016.66;;;11.58;42.58
47873;BME280;73966;47.438;18.912;2024-01-27T08:29:24;101024.66;;;11.90;41.87
47873;BME280;73966;47.438;18.912;2024-01-27T08:31:54;101002.09;;;12.13;41.19
47873;BME280;73966;47.438;18.912;2024-01-27T08:34:23;101016.31;;;12.12;41.15
47873;BME280;73966;47.438;18.912;2024-01-27T08:37:00;101017.47;;;12.22;41.05
47873;BME280;73966;47.438;18.912;2024-01-27T08:39:30;101017.88;;;12.00;40.94
47873;BME280;73966;47.438;18.912;2024-01-27T08:41:58;101027.03;;;12.40;40.51
47873;BME280;73966;47.438;18.912;2024-01-27T08:44:27;101018.75;;;12.30;39.91
47873;BME280;73966;47.438;18.912;2024-01-27T08:46:57;101027.59;;;12.15;40.49
47873;BME280;73966;47.438;18.912;2024-01-27T08:49:29;101027.22;;;12.37;40.27
47873;BME280;73966;47.438;18.912;2024-01-27T08:52:00;101039.59;;;12.22;40.21
47873;BME280;73966;47.438;18.912;2024-01-27T08:54:29;101032.16;;;12.13;40.18
47873;BME280;73966;47.438;18.912;2024-01-27T08:56:58;101039.69;;;12.21;40.18
47873;BME280;73966;47.438;18.912;2024-01-27T08:59:27;101042.22;;;12.68;39.49
47873;BME280;73966;47.438;18.912;2024-01-27T09:01:57;101058.78;;;12.43;39.29
47873;BME280;73966;47.438;18.912;2024-01-27T09:04:28;101038.19;;;12.31;39.26
47873;BME280;73966;47.438;18.912;2024-01-27T09:06:59;101051.44;;;11.20;40.76
47873;BME280;73966;47.438;18.912;2024-01-27T09:09:29;101069.50;;;11.14;40.89
47873;BME280;73966;47.438;18.912;2024-01-27T09:11:58;101039.28;;;10.83;41.62
47873;BME280;73966;47.438;18.912;2024-01-27T09:14:28;101068.25;;;11.03;42.22
47873;BME280;73966;47.438;18.912;2024-01-27T09:16:57;101061.13;;;11.21;41.84
47873;BME280;73966;47.438;18.912;2024-01-27T09:19:31;101062.69;;;10.75;41.68
47873;BME280;73966;47.438;18.912;2024-01-27T09:22:02;101060.56;;;10.99;41.85
47873;BME280;73966;47.438;18.912;2024-01-27T09:24:35;101063.22;;;11.48;41.03
47873;BME280;73966;47.438;18.912;2024-01-27T09:27:05;101060.78;;;10.94;41.21
47873;BME280;73966;47.438;18.912;2024-01-27T09:29:35;101065.34;;;10.75;41.97
47873;BME280;73966;47.438;18.912;2024-01-27T09:32:05;101058.78;;;10.65;42.39
47873;BME280;73966;47.438;18.912;2024-01-27T09:34:38;101068.00;;;10.57;42.80
47873;BME280;73966;47.438;18.912;2024-01-27T09:37:09;101056.84;;;10.33;42.37
47873;BME280;73966;47.438;18.912;2024-01-27T09:39:41;101041.72;;;10.36;42.23
47873;BME280;73966;47.438;18.912;2024-01-27T09:42:13;101054.28;;;10.49;42.65
47873;BME280;73966;47.438;18.912;2024-01-27T09:44:43;101048.13;;;10.99;41.82
47873;BME280;73966;47.438;18.912;2024-01-27T09:47:13;101051.88;;;11.13;41.37
47873;BME280;73966;47.438;18.912;2024-01-27T09:49:43;101053.22;;;11.37;40.53
47873;BME280;73966;47.438;18.912;2024-01-27T09:52:16;101050.87;;;11.31;40.09
47873;BME280;73966;47.438;18.912;2024-01-27T09:54:45;101063.13;;;11.33;39.99
47873;BME280;73966;47.438;18.912;2024-01-27T09:57:15;101068.41;;;11.82;39.07
47873;BME280;73966;47.438;18.912;2024-01-27T09:59:47;101076.78;;;11.75;38.64
47873;BME280;73966;47.438;18.912;2024-01-27T10:02:18;101092.06;;;11.38;38.89
47873;BME280;73966;47.438;18.912;2024-01-27T10:04:48;101086.03;;;11.68;38.97
47873;BME280;73966;47.438;18.912;2024-01-27T10:07:19;101083.41;;;11.99;38.46
47873;BME280;73966;47.438;18.912;2024-01-27T10:09:49;101071.59;;;12.05;37.60
47873;BME280;73966;47.438;18.912;2024-01-27T10:12:20;101077.28;;;11.50;37.71
47873;BME280;73966;47.438;18.912;2024-01-27T10:14:51;101074.28;;;11.56;37.92
47873;BME280;73966;47.438;18.912;2024-01-27T10:17:21;101077.25;;;11.83;39.02
47873;BME280;73966;47.438;18.912;2024-01-27T10:19:59;101073.53;;;11.70;37.65
47873;BME280;73966;47.438;18.912;2024-01-27T10:22:38;101076.50;;;11.64;38.50
47873;BME280;73966;47.438;18.912;2024-01-27T10:25:08;101067.34;;;11.53;37.78
47873;BME280;73966;47.438;18.912;2024-01-27T10:27:42;101061.25;;;12.00;37.83
47873;BME280;73966;47.438;18.912;2024-01-27T10:30:15;101069.28;;;11.99;37.16
47873;BME280;73966;47.438;18.912;2024-01-27T10:32:54;101057.28;;;11.60;38.03
47873;BME280;73966;47.438;18.912;2024-01-27T10:35:25;101068.78;;;11.92;37.89
47873;BME280;73966;47.438;18.912;2024-01-27T10:37:55;101063.94;;;11.67;37.68
47873;BME280;73966;47.438;18.912;2024-01-27T10:40:27;101075.34;;;11.36;38.38
47873;BME280;73966;47.438;18.912;2024-01-27T10:43:01;101077.13;;;11.20;38.19
47873;BME280;73966;47.438;18.912;2024-01-27T10:45:35;101072.56;;;11.55;38.05
47873;BME280;73966;47.438;18.912;2024-01-27T10:48:06;101077.94;;;11.87;38.09
47873;BME280;73966;47.438;18.912;2024-01-27T10:50:38;101055.03;;;11.52;37.63
47873;BME280;73966;47.438;18.912;2024-01-27T10:53:22;101072.88;;;11.00;38.63
47873;BME280;73966;47.438;18.912;2024-01-27T10:55:53;101087.16;;;10.80;39.20
47873;BME280;73966;47.438;18.912;2024-01-27T10:58:24;101070.91;;;11.03;37.66
47873;BME280;73966;47.438;18.912;2024-01-27T11:00:56;101090.03;;;11.10;38.40
47873;BME280;73966;47.438;18.912;2024-01-27T11:03:25;101098.03;;;11.08;38.48
47873;BME280;73966;47.438;18.912;2024-01-27T11:05:57;101086.97;;;11.18;38.46
47873;BME280;73966;47.438;18.912;2024-01-27T11:08:29;101093.47;;;10.43;39.58
47873;BME280;73966;47.438;18.912;2024-01-27T11:11:07;101096.81;;;9.91;40.55
47873;BME280;73966;47.438;18.912;2024-01-27T11:13:39;101102.13;;;9.91;40.52
47873;BME280;73966;47.438;18.912;2024-01-27T11:16:15;101081.31;;;10.20;40.26
47873;BME280;73966;47.438;18.912;2024-01-27T11:18:47;101088.63;;;10.15;40.83
47873;BME280;73966;47.438;18.912;2024-01-27T11:21:19;101089.62;;;10.48;40.12
47873;BME280;73966;47.438;18.912;2024-01-27T11:23:50;101083.84;;;10.04;40.65
47873;BME280;73966;47.438;18.912;2024-01-27T11:26:21;101086.66;;;9.63;40.96
47873;BME280;73966;47.438;18.912;2024-01-27T11:28:50;101088.84;;;8.95;42.29
47873;BME280;73966;47.438;18.912;2024-01-27T11:31:20;101081.47;;;8.83;42.68
47873;BME280;73966;47.438;18.912;2024-01-27T11:33:50;101078.84;;;8.61;42.55
47873;BME280;73966;47.438;18.912;2024-01-27T11:36:22;101078.94;;;8.16;42.93
47873;BME280;73966;47.438;18.912;2024-01-27T11:38:54;101072.62;;;8.42;43.32
47873;BME280;73966;47.438;18.912;2024-01-27T11:41:25;101058.22;;;8.27;44.17
47873;BME280;73966;47.438;18.912;2024-01-27T11:43:56;101064.72;;;8.82;43.73
47873;BME280;73966;47.438;18.912;2024-01-27T11:46:27;101055.72;;;9.07;43.78
47873;BME280;73966;47.438;18.912;2024-01-27T11:48:56;101074.03;;;9.30;44.06
47873;BME280;73966;47.438;18.912;2024-01-27T11:51:25;101060.00;;;9.09;44.31
47873;BME280;73966;47.438;18.912;2024-01-27T11:53:57;101053.81;;;8.90;43.89
47873;BME280;73966;47.438;18.912;2024-01-27T11:56:27;101061.28;;;8.80;43.83
47873;BME280;73966;47.438;18.912;2024-01-27T11:58:56;101060.78;;;8.72;44.46
47873;BME280;73966;47.438;18.912;2024-01-27T12:01:27;101037.13;;;9.08;43.84
47873;BME280;73966;47.438;18.912;2024-01-27T12:03:57;101045.25;;;9.24;43.48
47873;BME280;73966;47.438;18.912;2024-01-27T12:06:26;101041.44;;;9.11;42.78
47873;BME280;73966;47.438;18.912;2024-01-27T12:08:56;101064.53;;;8.87;42.38
47873;BME280;73966;47.438;18.912;2024-01-27T12:11:29;101051.25;;;8.89;42.68
47873;BME280;73966;47.438;18.912;2024-01-27T12:13:59;101050.84;;;8.77;43.00
47873;BME280;73966;47.438;18.912;2024-01-27T12:16:28;101041.94;;;8.59;44.17
47873;BME280;73966;47.438;18.912;2024-01-27T12:18:58;101052.22;;;8.66;44.31
47873;BME280;73966;47.438;18.912;2024-01-27T12:21:27;101047.78;;;8.86;43.83
47873;BME280;73966;47.438;18.912;2024-01-27T12:23:57;101042.38;;;8.90;43.61
47873;BME280;73966;47.438;18.912;2024-01-27T12:26:30;101068.75;;;9.11;43.42
47873;BME280;73966;47.438;18.912;2024-01-27T12:28:59;101073.66;;;8.80;43.90
47873;BME280;73966;47.438;18.912;2024-01-27T12:31:28;101075.09;;;9.07;43.41
47873;BME280;73966;47.438;18.912;2024-01-27T12:33:57;101081.84;;;9.15;43.30
47873;BME280;73966;47.438;18.912;2024-01-27T12:36:28;101095.13;;;8.93;44.42
47873;BME280;73966;47.438;18.912;2024-01-27T12:38:58;101090.91;;;8.89;44.58
47873;BME280;73966;47.438;18.912;2024-01-27T12:41:29;101084.69;;;8.47;45.34
47873;BME280;73966;47.438;18.912;2024-01-27T12:44:00;101066.69;;;8.77;44.74
47873;BME280;73966;47.438;18.912;2024-01-27T12:46:30;101067.87;;;8.50;45.63
47873;BME280;73966;47.438;18.912;2024-01-27T12:49:02;101072.25;;;8.29;45.77
47873;BME280;73966;47.438;18.912;2024-01-27T12:51:32;101066.38;;;8.44;45.42
47873;BME280;73966;47.438;18.912;2024-01-27T12:54:05;101074.69;;;8.33;45.44
47873;BME280;73966;47.438;18.912;2024-01-27T12:56:37;101057.13;;;8.32;45.16
47873;BME280;73966;47.438;18.912;2024-01-27T12:59:10;101065.44;;;8.45;45.27
47873;BME280;73966;47.438;18.912;2024-01-27T13:01:40;101078.72;;;8.64;44.75
47873;BME280;73966;47.438;18.912;2024-01-27T13:04:09;101069.41;;;8.55;44.91
47873;BME280;73966;47.438;18.912;2024-01-27T13:06:42;101064.81;;;8.38;44.93